Time;durP1;ratioP1;P1;durP2;ratioP2;P2;SDS_P1;SDS_P2;PMS_P1;PMS_P2;Temp;Humidity;BMP_temperature;BMP_pressure;BME280_temperature;BME280_humidity;BME280_pressure;Samples;Min_cycle;Max_cycle;Signal;HPM_P1;HPM_P2
2022/08/09 00:02:56;;;;;;;3.03;1.75;;;16.90;99.90;;;;;;7315759;32;20630;-63
2022/08/09 00:06:58;;;;;;;5.03;1.85;;;16.80;99.90;;;;;;7308875;32;20510;-64
2022/08/09 00:11:01;;;;;;;6.20;1.87;;;16.80;99.90;;;;;;7319929;32;20104;-65
2022/08/09 00:15:23;;;;;;;3.03;1.70;;;16.80;99.90;;;;;;7310327;32;20222;-63
2022/08/09 00:19:36;;;;;;;7.50;1.90;;;16.80;99.90;;;;;;7312318;32;20658;-64
2022/08/09 00:23:40;;;;;;;6.85;1.98;;;16.80;99.90;;;;;;7318453;32;20131;-64
2022/08/09 00:28:00;;;;;;;4.40;1.73;;;16.70;99.90;;;;;;7317341;32;20114;-64
2022/08/09 00:32:05;;;;;;;3.22;1.95;;;16.70;99.90;;;;;;7314421;32;20232;-64
2022/08/09 00:36:06;;;;;;;7.47;1.70;;;16.70;99.90;;;;;;7314554;32;20241;-64
2022/08/09 00:40:09;;;;;;;5.97;1.98;;;16.70;99.90;;;;;;7317084;32;20518;-64
2022/08/09 00:44:18;;;;;;;4.50;1.90;;;16.70;99.90;;;;;;7316450;32;20092;-64
2022/08/09 00:48:28;;;;;;;3.85;2.15;;;16.70;99.90;;;;;;7314589;32;20092;-63
2022/08/09 00:52:33;;;;;;;5.60;1.98;;;16.70;99.90;;;;;;7316892;32;20305;-64
2022/08/09 00:56:36;;;;;;;9.45;2.10;;;16.70;99.90;;;;;;7312425;32;20978;-64
2022/08/09 01:00:42;;;;;;;5.12;1.95;;;16.70;99.90;;;;;;7313320;32;20092;-64
2022/08/09 01:04:56;;;;;;;4.97;2.03;;;16.70;99.90;;;;;;7319452;32;20142;-64
2022/08/09 01:10:03;;;;;;;3.72;1.80;;;16.60;99.90;;;;;;7317874;32;20115;-64
2022/08/09 01:14:31;;;;;;;5.10;2.10;;;16.70;99.90;;;;;;7219234;32;20099;-63
2022/08/09 01:18:35;;;;;;;4.10;1.42;;;16.60;99.90;;;;;;7312449;32;20187;-64
2022/08/09 01:23:09;;;;;;;6.12;2.25;;;16.60;99.90;;;;;;7318240;32;20608;-62
2022/08/09 01:27:34;;;;;;;4.85;2.00;;;16.50;99.90;;;;;;7310256;32;20178;-62
2022/08/09 01:31:36;;;;;;;4.90;2.05;;;16.50;99.90;;;;;;7314699;32;20900;-63
2022/08/09 01:36:10;;;;;;;8.88;2.10;;;16.50;99.90;;;;;;7310373;32;20209;-64
2022/08/09 01:40:17;;;;;;;4.03;2.20;;;16.40;99.90;;;;;;7308570;32;20179;-64
2022/08/09 01:44:30;;;;;;;5.93;2.03;;;16.40;99.90;;;;;;7310877;32;20128;-64
2022/08/09 01:48:34;;;;;;;5.43;1.98;;;16.40;99.90;;;;;;7312719;32;20195;-65
2022/08/09 01:52:40;;;;;;;4.12;2.15;;;16.40;99.90;;;;;;7309406;32;20111;-66
2022/08/09 01:56:47;;;;;;;2.30;1.67;;;16.30;99.90;;;;;;7309409;32;20213;-63
2022/08/09 02:00:54;;;;;;;3.03;2.12;;;16.30;99.90;;;;;;7314838;32;20170;-63
2022/08/09 02:05:01;;;;;;;4.47;1.92;;;16.30;99.90;;;;;;7300766;32;20222;-63
2022/08/09 02:09:09;;;;;;;6.40;2.35;;;16.30;99.90;;;;;;7318658;32;20238;-64
2022/08/09 02:13:13;;;;;;;5.05;1.90;;;16.30;99.90;;;;;;7312996;32;20111;-63
2022/08/09 02:17:17;;;;;;;5.65;2.05;;;16.20;99.90;;;;;;7312256;32;20306;-64
2022/08/09 02:21:43;;;;;;;5.43;2.28;;;16.20;99.90;;;;;;7316952;32;20096;-63
2022/08/09 02:25:51;;;;;;;3.62;2.10;;;16.20;99.90;;;;;;7311565;32;20166;-65
2022/08/09 02:29:57;;;;;;;7.85;2.40;;;16.00;99.90;;;;;;7303436;32;20199;-63
2022/08/09 02:34:10;;;;;;;4.28;2.05;;;16.00;99.90;;;;;;7319398;32;20232;-65
2022/08/09 02:38:30;;;;;;;4.65;2.70;;;16.00;99.90;;;;;;7309283;32;20237;-63
2022/08/09 02:42:41;;;;;;;6.10;2.17;;;16.00;99.90;;;;;;7308728;32;20100;-63
2022/08/09 02:46:45;;;;;;;4.85;2.25;;;16.00;99.90;;;;;;7313129;32;20744;-64
2022/08/09 02:50:56;;;;;;;7.37;2.53;;;15.90;99.90;;;;;;7304262;32;20205;-64
2022/08/09 02:55:00;;;;;;;5.45;2.70;;;16.00;99.90;;;;;;7307383;32;20153;-64
2022/08/09 02:59:18;;;;;;;3.78;2.40;;;15.90;99.90;;;;;;7315008;32;20215;-64
2022/08/09 03:03:38;;;;;;;4.50;2.15;;;15.90;99.90;;;;;;7313592;32;20195;-63
2022/08/09 03:08:01;;;;;;;7.87;2.83;;;15.90;99.90;;;;;;7319638;32;20243;-64
2022/08/09 03:12:04;;;;;;;7.37;3.37;;;15.80;99.90;;;;;;7318816;32;20176;-63
2022/08/09 03:16:13;;;;;;;4.72;2.22;;;15.80;99.90;;;;;;7319430;32;20284;-64
2022/08/09 03:20:16;;;;;;;4.12;2.62;;;15.80;99.90;;;;;;7313949;32;20308;-65
2022/08/09 03:24:18;;;;;;;7.50;2.67;;;15.70;99.90;;;;;;7313451;32;20234;-64
2022/08/09 03:28:41;;;;;;;5.87;2.75;;;15.70;99.90;;;;;;7311694;32;20234;-64
2022/08/09 03:32:45;;;;;;;5.37;2.70;;;15.70;99.90;;;;;;7313575;32;20179;-63
2022/08/09 03:36:48;;;;;;;6.93;3.08;;;15.60;99.90;;;;;;7320752;32;20622;-64
2022/08/09 03:41:02;;;;;;;5.12;2.92;;;15.60;99.90;;;;;;7316451;32;20469;-64
2022/08/09 03:45:05;;;;;;;8.65;2.45;;;15.40;99.90;;;;;;7320268;32;20149;-63
2022/08/09 03:49:08;;;;;;;5.05;2.95;;;15.50;99.90;;;;;;7313925;32;20112;-63
2022/08/09 03:53:11;;;;;;;4.62;2.95;;;15.40;99.90;;;;;;7317936;32;20184;-64
2022/08/09 03:57:17;;;;;;;8.25;2.97;;;15.30;99.90;;;;;;7314159;32;20742;-64
2022/08/09 04:01:22;;;;;;;6.80;3.35;;;15.40;99.90;;;;;;7312945;32;20187;-63
2022/08/09 04:05:25;;;;;;;6.55;3.35;;;15.30;99.90;;;;;;7316112;32;20216;-64
2022/08/09 04:09:28;;;;;;;5.55;3.35;;;15.30;99.90;;;;;;7318223;32;20104;-63
2022/08/09 04:13:50;;;;;;;6.75;3.67;;;15.30;99.90;;;;;;7316354;32;20582;-63
2022/08/09 04:18:13;;;;;;;6.12;3.35;;;15.30;99.90;;;;;;7313571;32;20585;-64
2022/08/09 04:22:19;;;;;;;6.25;3.35;;;15.30;99.90;;;;;;7311812;32;20175;-64
2022/08/09 04:26:22;;;;;;;6.53;3.20;;;15.20;99.90;;;;;;7317441;32;20179;-63
2022/08/09 04:30:24;;;;;;;6.60;3.00;;;15.20;99.90;;;;;;7313645;32;20285;-67
2022/08/09 04:34:32;;;;;;;8.27;4.68;;;15.20;99.90;;;;;;7313738;32;20382;-66
2022/08/09 04:38:33;;;;;;;4.15;3.22;;;15.10;99.90;;;;;;7310831;32;20194;-67
2022/08/09 04:42:37;;;;;;;6.10;3.20;;;15.20;99.90;;;;;;7311677;32;20219;-67
2022/08/09 04:46:39;;;;;;;4.45;3.00;;;15.20;99.90;;;;;;7310811;32;20190;-68
2022/08/09 04:51:01;;;;;;;8.30;3.47;;;15.30;99.90;;;;;;7310506;32;20124;-67
2022/08/09 04:55:02;;;;;;;7.97;3.60;;;15.20;99.90;;;;;;7308506;32;20134;-67
2022/08/09 04:59:09;;;;;;;5.57;3.15;;;15.30;99.90;;;;;;7316442;32;20104;-66
2022/08/09 05:03:16;;;;;;;9.65;3.25;;;15.60;99.90;;;;;;7306443;32;20538;-67
2022/08/09 05:07:38;;;;;;;7.72;4.72;;;15.70;99.90;;;;;;7301994;32;20532;-67
2022/08/09 05:11:40;;;;;;;6.85;3.60;;;15.70;99.90;;;;;;7313572;32;20505;-66
2022/08/09 05:15:44;;;;;;;6.82;3.45;;;15.60;99.90;;;;;;7311262;32;20130;-67
2022/08/09 05:19:48;;;;;;;5.55;3.40;;;15.60;99.90;;;;;;7311514;32;20254;-65
2022/08/09 05:23:58;;;;;;;6.72;3.53;;;15.60;99.90;;;;;;7312054;32;20190;-65
2022/08/09 05:28:04;;;;;;;8.60;3.60;;;15.60;99.90;;;;;;7306599;32;20104;-61
2022/08/09 05:32:07;;;;;;;6.10;3.65;;;15.60;99.90;;;;;;7309305;32;20311;-63
2022/08/09 05:36:10;;;;;;;4.50;3.72;;;15.70;99.90;;;;;;7290140;32;20111;-65
2022/08/09 05:40:16;;;;;;;5.75;3.50;;;15.80;99.90;;;;;;7309453;32;20238;-63
2022/08/09 05:44:19;;;;;;;6.55;3.35;;;15.80;99.90;;;;;;7311953;32;20122;-64
2022/08/09 05:48:29;;;;;;;4.93;3.08;;;15.90;99.90;;;;;;7301062;32;20356;-65
2022/08/09 05:52:34;;;;;;;8.05;3.40;;;15.90;99.90;;;;;;7305997;32;21884;-68
2022/08/09 05:56:39;;;;;;;24.37;16.08;;;16.00;99.90;;;;;;7301632;32;20218;-67
2022/08/09 06:00:57;;;;;;;4.13;3.00;;;16.10;99.90;;;;;;7304429;32;20547;-68
2022/08/09 06:04:59;;;;;;;9.70;3.80;;;16.20;99.90;;;;;;7315297;32;20171;-69
2022/08/09 06:09:00;;;;;;;9.43;3.67;;;16.20;99.90;;;;;;7312982;32;20591;-67
2022/08/09 06:13:12;;;;;;;6.72;3.22;;;16.30;99.90;;;;;;7312211;32;20177;-67
2022/08/09 06:17:19;;;;;;;7.05;3.45;;;16.30;99.90;;;;;;7308572;32;20115;-67
2022/08/09 06:21:21;;;;;;;7.82;3.72;;;16.40;99.90;;;;;;7313355;32;20509;-68
2022/08/09 06:25:23;;;;;;;7.28;4.60;;;16.50;99.90;;;;;;7306299;32;20132;-67
2022/08/09 06:29:25;;;;;;;7.10;3.58;;;16.60;99.90;;;;;;7308154;32;20127;-67
2022/08/09 06:33:27;;;;;;;9.60;4.30;;;16.60;99.90;;;;;;7312370;32;20288;-68
2022/08/09 06:37:42;;;;;;;7.22;4.12;;;16.70;99.90;;;;;;7313974;32;20175;-68
2022/08/09 06:42:03;;;;;;;9.45;4.30;;;16.80;99.90;;;;;;7311900;32;20091;-68
2022/08/09 06:46:12;;;;;;;5.53;4.25;;;16.90;99.90;;;;;;7311333;32;20100;-68
2022/08/09 06:50:34;;;;;;;7.50;4.03;;;17.10;99.90;;;;;;7313834;32;20115;-68
2022/08/09 06:54:36;;;;;;;5.43;3.55;;;17.30;99.90;;;;;;7310635;32;20267;-67
2022/08/09 06:58:39;;;;;;;7.00;3.47;;;17.40;99.90;;;;;;7318280;32;20123;-67
2022/08/09 07:03:02;;;;;;;5.80;3.33;;;17.60;99.90;;;;;;7313033;32;20130;-68
2022/08/09 07:07:06;;;;;;;6.72;3.53;;;17.70;99.90;;;;;;7318713;32;20104;-68
2022/08/09 07:11:12;;;;;;;6.75;3.72;;;17.90;99.90;;;;;;7309634;32;20218;-66
2022/08/09 07:15:25;;;;;;;4.20;3.08;;;18.00;99.90;;;;;;7317067;32;20302;-67
2022/08/09 07:19:49;;;;;;;6.87;3.08;;;18.20;99.90;;;;;;7312270;32;20747;-67
2022/08/09 07:23:56;;;;;;;7.90;2.75;;;18.30;99.90;;;;;;7314804;32;20096;-69
2022/08/09 07:27:59;;;;;;;6.32;2.47;;;18.50;99.90;;;;;;7310480;32;20096;-69
2022/08/09 07:32:06;;;;;;;3.92;2.47;;;18.50;99.90;;;;;;7309446;32;20130;-68
2022/08/09 07:36:08;;;;;;;7.28;2.37;;;18.60;99.90;;;;;;7307621;32;20203;-67
2022/08/09 07:40:12;;;;;;;5.90;2.87;;;18.80;99.90;;;;;;7315750;32;20135;-69
2022/08/09 07:44:18;;;;;;;7.82;2.78;;;18.90;99.90;;;;;;7313201;32;20679;-69
2022/08/09 07:48:40;;;;;;;6.75;2.95;;;19.00;99.90;;;;;;7310272;32;20681;-69
2022/08/09 07:52:41;;;;;;;4.97;2.80;;;19.20;99.90;;;;;;7315611;32;20239;-68
2022/08/09 07:56:43;;;;;;;8.30;2.83;;;19.30;99.90;;;;;;7316659;32;20126;-69
2022/08/09 08:00:50;;;;;;;5.12;2.60;;;19.40;99.90;;;;;;7318018;32;20100;-69
2022/08/09 08:05:06;;;;;;;4.70;2.28;;;19.40;99.90;;;;;;7318385;32;20211;-69
2022/08/09 08:09:18;;;;;;;5.72;2.83;;;19.60;99.90;;;;;;7315951;32;20895;-68
2022/08/09 08:13:40;;;;;;;4.40;2.40;;;19.90;99.90;;;;;;7311831;32;20182;-67
2022/08/09 08:17:57;;;;;;;5.68;2.20;;;20.00;99.90;;;;;;7308016;32;20115;-67
2022/08/09 08:21:59;;;;;;;5.57;2.50;;;20.30;99.90;;;;;;7313664;32;20238;-67
2022/08/09 08:26:02;;;;;;;5.03;2.15;;;20.30;99.90;;;;;;7309919;32;20110;-68
2022/08/09 08:30:12;;;;;;;6.05;1.90;;;20.50;99.90;;;;;;7311301;32;20124;-67
2022/08/09 08:34:14;;;;;;;6.43;2.50;;;20.60;99.90;;;;;;7315837;32;21078;-66
2022/08/09 08:38:21;;;;;;;6.30;2.17;;;20.80;99.90;;;;;;7315979;32;20219;-65
2022/08/09 08:42:27;;;;;;;8.63;2.40;;;21.10;99.90;;;;;;7314406;32;20131;-68
2022/08/09 08:46:38;;;;;;;6.05;2.28;;;21.50;99.90;;;;;;7310147;32;20186;-68
2022/08/09 08:50:54;;;;;;;7.35;2.05;;;22.60;99.90;;;;;;7302537;32;20101;-67
2022/08/09 08:54:58;;;;;;;7.45;2.17;;;23.40;99.90;;;;;;7310481;32;20264;-67
2022/08/09 08:59:09;;;;;;;4.65;2.25;;;23.40;99.90;;;;;;7312606;32;20099;-68
2022/08/09 09:03:32;;;;;;;3.97;2.10;;;24.00;99.90;;;;;;7314394;32;20154;-68
2022/08/09 09:07:42;;;;;;;3.85;1.70;;;24.90;99.90;;;;;;7310267;32;20187;-69
2022/08/09 09:11:46;;;;;;;5.30;1.70;;;25.60;99.90;;;;;;7311370;32;20135;-68
2022/08/09 09:15:50;;;;;;;3.62;2.00;;;26.70;99.90;;;;;;7310903;32;20178;-68
2022/08/09 09:19:54;;;;;;;5.05;2.03;;;26.40;99.90;;;;;;7312539;32;20183;-68
2022/08/09 09:24:03;;;;;;;6.53;1.65;;;26.30;99.90;;;;;;7304806;32;20246;-69
2022/08/09 09:28:12;;;;;;;4.37;1.98;;;26.50;99.90;;;;;;7315001;32;20096;-69
2022/08/09 09:32:34;;;;;;;9.00;2.30;;;26.80;99.90;;;;;;7308232;32;20262;-68
2022/08/09 09:36:40;;;;;;;4.47;2.03;;;25.90;99.90;;;;;;7306872;32;20108;-69
2022/08/09 09:40:54;;;;;;;3.33;2.00;;;25.90;99.90;;;;;;7307448;32;20119;-68
2022/08/09 09:45:10;;;;;;;3.65;1.75;;;26.30;99.90;;;;;;7310916;32;20108;-67
2022/08/09 09:49:26;;;;;;;6.70;2.00;;;26.20;99.90;;;;;;7314127;32;20188;-66
2022/08/09 09:54:16;;;;;;;4.70;2.05;;;26.20;99.90;;;;;;7309956;32;22253;-68
2022/08/09 09:58:22;;;;;;;4.07;2.22;;;26.40;98.90;;;;;;7305747;32;20173;-68
2022/08/09 10:02:26;;;;;;;4.35;2.00;;;26.30;99.20;;;;;;7314818;32;20119;-68
2022/08/09 10:06:48;;;;;;;7.45;2.00;;;27.30;98.80;;;;;;7315157;32;20107;-70
2022/08/09 10:10:55;;;;;;;2.60;1.73;;;27.40;99.30;;;;;;7321611;32;20739;-68
2022/08/09 10:15:13;;;;;;;4.10;2.12;;;28.10;96.20;;;;;;7316988;32;20127;-68
2022/08/09 10:19:35;;;;;;;7.28;2.15;;;28.10;95.30;;;;;;7312287;32;20186;-68
2022/08/09 10:23:37;;;;;;;4.32;1.95;;;27.90;93.90;;;;;;7322355;32;20221;-69
2022/08/09 10:27:42;;;;;;;4.12;2.40;;;27.80;93.90;;;;;;7314250;32;20956;-68
2022/08/09 10:31:58;;;;;;;3.47;1.83;;;28.10;94.30;;;;;;7315340;32;20116;-69
2022/08/09 10:36:20;;;;;;;6.85;2.00;;;28.50;92.60;;;;;;7311273;32;20234;-68
2022/08/09 10:40:23;;;;;;;5.00;2.42;;;28.70;91.50;;;;;;7310282;32;20219;-68
2022/08/09 10:44:37;;;;;;;4.97;1.98;;;28.40;90.50;;;;;;7311282;32;20149;-68
2022/08/09 10:48:52;;;;;;;6.18;2.17;;;28.20;91.90;;;;;;7311911;32;20096;-68
2022/08/09 10:53:33;;;;;;;4.70;2.37;;;28.00;91.40;;;;;;7312499;32;20747;-68
2022/08/09 10:57:38;;;;;;;4.60;2.35;;;27.50;90.70;;;;;;7294283;32;20818;-68
2022/08/09 11:01:42;;;;;;;4.18;2.03;;;27.10;92.40;;;;;;7314855;32;20235;-69
2022/08/09 11:06:24;;;;;;;5.20;2.22;;;27.40;92.50;;;;;;7315755;32;20118;-69
2022/08/09 11:10:41;;;;;;;5.65;2.45;;;27.30;92.70;;;;;;7314992;32;20100;-68
2022/08/09 11:15:00;;;;;;;3.87;2.00;;;27.60;91.60;;;;;;7310843;32;20211;-68
2022/08/09 11:19:06;;;;;;;4.70;2.22;;;27.20;91.00;;;;;;7314856;32;20254;-69
2022/08/09 11:23:12;;;;;;;4.22;2.33;;;27.40;91.30;;;;;;7311865;32;20158;-69
2022/08/09 11:27:35;;;;;;;6.12;2.08;;;27.60;91.80;;;;;;7315928;32;20210;-67
2022/08/09 11:31:56;;;;;;;5.28;2.40;;;27.50;90.70;;;;;;7311976;32;20179;-68
2022/08/09 11:36:00;;;;;;;6.40;2.10;;;27.70;90.20;;;;;;7319454;32;20227;-69
2022/08/09 11:40:05;;;;;;;5.15;2.17;;;27.70;89.50;;;;;;7314112;32;20190;-67
2022/08/09 11:44:08;;;;;;;2.92;1.77;;;27.60;88.90;;;;;;7309585;32;20281;-67
2022/08/09 11:48:10;;;;;;;10.55;2.45;;;27.90;89.90;;;;;;7313178;32;20160;-67
2022/08/09 11:52:26;;;;;;;3.62;2.33;;;27.80;87.40;;;;;;7315169;32;20158;-68
2022/08/09 11:56:48;;;;;;;3.95;2.22;;;27.80;86.70;;;;;;7311802;32;20186;-68
2022/08/09 12:01:02;;;;;;;5.68;2.15;;;27.70;87.10;;;;;;7314998;32;20213;-67
2022/08/09 12:05:09;;;;;;;4.05;2.25;;;27.70;87.10;;;;;;7320559;32;20195;-68
2022/08/09 12:09:29;;;;;;;4.40;2.00;;;27.50;85.40;;;;;;7316268;32;20092;-68
2022/08/09 12:13:41;;;;;;;4.07;2.17;;;27.70;89.10;;;;;;7313741;32;20195;-68
2022/08/09 12:18:02;;;;;;;6.87;2.00;;;28.20;86.90;;;;;;7302599;32;20229;-67
2022/08/09 12:22:09;;;;;;;6.68;2.05;;;28.10;84.50;;;;;;7305033;32;20483;-68
2022/08/09 12:26:12;;;;;;;7.80;2.33;;;28.30;84.70;;;;;;7306477;32;20117;-69
2022/08/09 12:30:30;;;;;;;5.65;2.15;;;28.40;85.20;;;;;;7304854;32;20206;-70
2022/08/09 12:34:41;;;;;;;5.80;2.10;;;28.30;83.70;;;;;;7308979;32;20116;-69
2022/08/09 12:38:43;;;;;;;2.65;1.70;;;27.90;84.20;;;;;;7311496;32;20128;-69
2022/08/09 12:42:45;;;;;;;3.40;1.95;;;28.00;84.90;;;;;;7310889;32;20225;-69
2022/08/09 12:46:51;;;;;;;4.62;1.98;;;27.70;85.00;;;;;;7313337;32;20458;-69
2022/08/09 12:50:53;;;;;;;4.95;1.87;;;27.60;84.00;;;;;;7306268;32;20135;-68
2022/08/09 12:54:55;;;;;;;6.75;2.40;;;27.70;85.30;;;;;;7310114;32;20366;-68
2022/08/09 12:59:19;;;;;;;4.93;1.92;;;27.90;83.40;;;;;;7311186;32;20226;-68
2022/08/09 13:03:33;;;;;;;3.92;1.98;;;27.80;81.60;;;;;;7315513;32;20205;-68
2022/08/09 13:08:13;;;;;;;7.50;2.00;;;28.10;84.50;;;;;;7306912;32;20182;-68
2022/08/09 13:12:15;;;;;;;4.65;1.85;;;27.80;82.90;;;;;;7313745;32;20206;-69
2022/08/09 13:16:20;;;;;;;4.90;1.95;;;27.90;81.50;;;;;;7311252;32;20100;-68
2022/08/09 13:20:35;;;;;;;3.83;1.62;;;28.10;82.20;;;;;;7306240;32;20490;-68
2022/08/09 13:24:58;;;;;;;3.30;1.98;;;28.50;81.70;;;;;;7314162;32;20237;-69
2022/08/09 13:29:07;;;;;;;4.78;1.83;;;28.70;82.90;;;;;;7306483;32;20291;-69
2022/08/09 13:33:19;;;;;;;5.22;2.12;;;28.60;80.00;;;;;;7311226;32;20130;-68
2022/08/09 13:37:23;;;;;;;4.65;1.77;;;28.20;77.40;;;;;;7309550;32;20605;-67
2022/08/09 13:41:44;;;;;;;6.32;2.10;;;28.00;80.60;;;;;;7311808;32;20114;-68
2022/08/09 13:46:01;;;;;;;4.62;1.73;;;28.60;79.90;;;;;;7311452;32;20191;-66
2022/08/09 13:50:22;;;;;;;4.00;1.80;;;28.70;75.10;;;;;;7306792;32;20559;-66
2022/08/09 13:54:31;;;;;;;6.97;1.77;;;28.80;78.70;;;;;;7311582;32;20103;-65
2022/08/09 13:58:33;;;;;;;4.62;2.20;;;29.20;77.40;;;;;;7306333;32;20567;-69
2022/08/09 14:02:35;;;;;;;6.80;1.85;;;29.00;76.00;;;;;;7312968;32;20210;-69
2022/08/09 14:07:01;;;;;;;3.97;2.10;;;28.80;77.00;;;;;;7313447;32;20104;-70
2022/08/09 14:11:04;;;;;;;4.45;1.92;;;28.90;74.30;;;;;;7311339;32;20158;-69
2022/08/09 14:15:17;;;;;;;5.00;1.87;;;28.90;74.70;;;;;;7305404;32;20138;-68
2022/08/09 14:19:38;;;;;;;6.22;2.00;;;29.00;75.00;;;;;;7306333;32;20209;-68
2022/08/09 14:23:40;;;;;;;3.78;2.10;;;28.50;74.20;;;;;;7311079;32;20169;-67
2022/08/09 14:27:57;;;;;;;4.70;2.33;;;28.60;75.10;;;;;;7310853;32;20214;-68
2022/08/09 14:31:59;;;;;;;5.12;2.00;;;28.50;75.30;;;;;;7309657;32;20646;-68
2022/08/09 14:36:12;;;;;;;5.12;1.70;;;28.30;73.90;;;;;;7306374;32;20190;-69
2022/08/09 14:40:21;;;;;;;4.10;1.77;;;28.50;74.70;;;;;;7309170;32;20095;-69
2022/08/09 14:44:44;;;;;;;4.37;1.70;;;28.50;71.00;;;;;;7311482;32;20510;-69
2022/08/09 14:49:00;;;;;;;;;;;28.50;72.70;;;;;;7305002;32;20092;-69
2022/08/09 14:53:06;;;;;;;3.45;1.70;;;28.50;73.40;;;;;;7310753;32;20010;-66
2022/08/09 14:57:12;;;;;;;5.32;1.98;;;28.60;73.80;;;;;;7311838;32;20196;-68
2022/08/09 15:01:17;;;;;;;5.72;1.77;;;28.20;72.30;;;;;;7317105;32;20123;-70
2022/08/09 15:05:21;;;;;;;4.97;2.00;;;28.00;74.70;;;;;;7318649;32;20100;-70
2022/08/09 15:09:24;;;;;;;4.62;1.77;;;28.20;74.80;;;;;;7314828;32;20104;-68
2022/08/09 15:13:46;;;;;;;4.78;2.67;;;28.30;74.80;;;;;;7308760;32;20122;-67
2022/08/09 15:18:06;;;;;;;3.90;1.87;;;28.10;73.70;;;;;;7311296;32;20578;-67
2022/08/09 15:22:12;;;;;;;5.87;2.00;;;28.00;74.70;;;;;;7314176;32;20223;-64
2022/08/09 15:26:18;;;;;;;3.10;1.60;;;28.10;76.00;;;;;;7316964;32;20155;-65
2022/08/09 15:30:32;;;;;;;3.25;2.03;;;27.70;74.20;;;;;;7318044;32;21026;-65
2022/08/09 15:34:54;;;;;;;3.40;1.70;;;27.50;73.90;;;;;;7313403;32;20133;-64
2022/08/09 15:38:57;;;;;;;4.70;1.65;;;27.30;74.70;;;;;;7317147;32;20174;-64
2022/08/09 15:43:00;;;;;;;5.82;2.00;;;27.20;72.60;;;;;;7315802;32;20150;-65
2022/08/09 15:47:03;;;;;;;2.70;1.70;;;27.00;73.60;;;;;;7316534;32;20100;-64
2022/08/09 15:51:06;;;;;;;5.87;3.53;;;27.00;76.00;;;;;;7312305;32;20099;-64
2022/08/09 15:55:27;;;;;;;5.87;1.90;;;27.00;75.50;;;;;;7316256;32;20100;-66
2022/08/09 15:59:35;;;;;;;6.62;2.33;;;27.00;76.10;;;;;;7316983;32;20123;-65
2022/08/09 16:03:38;;;;;;;3.22;1.87;;;26.90;77.00;;;;;;7315585;32;20286;-66
2022/08/09 16:07:43;;;;;;;6.32;1.80;;;26.80;74.80;;;;;;7309627;32;20112;-65
2022/08/09 16:11:46;;;;;;;4.93;2.28;;;26.70;75.20;;;;;;7313057;32;20123;-66
2022/08/09 16:15:58;;;;;;;7.40;1.50;;;26.50;75.10;;;;;;7307910;32;20104;-67
2022/08/09 16:20:14;;;;;;;3.70;1.90;;;26.60;74.00;;;;;;7315521;32;20156;-64
2022/08/09 16:24:16;;;;;;;2.72;1.90;;;26.60;74.80;;;;;;7314934;32;20814;-64
2022/08/09 16:28:34;;;;;;;3.58;1.60;;;26.60;76.40;;;;;;7310920;32;20103;-64
2022/08/09 16:36:59;;;;;;;3.85;1.95;;;26.50;77.10;;;;;;7313237;32;20099;-65
2022/08/09 16:41:01;;;;;;;6.07;2.00;;;26.50;77.50;;;;;;7304978;32;20239;-64
2022/08/09 16:45:06;;;;;;;4.53;1.70;;;26.30;77.30;;;;;;7305927;32;20201;-64
2022/08/09 16:49:08;;;;;;;5.28;1.95;;;26.20;77.00;;;;;;7314668;32;20129;-64
2022/08/09 16:53:28;;;;;;;5.25;1.80;;;26.10;76.70;;;;;;7308548;32;20134;-66
2022/08/09 16:57:35;;;;;;;4.40;2.10;;;26.20;76.70;;;;;;7305342;32;22082;-63
2022/08/09 17:01:57;;;;;;;7.47;4.20;;;26.10;78.10;;;;;;7310560;32;20128;-66
2022/08/09 17:05:59;;;;;;;5.30;1.87;;;26.10;77.60;;;;;;7312802;32;20770;-67
2022/08/09 17:10:13;;;;;;;2.55;1.52;;;26.00;77.90;;;;;;7305660;32;20358;-67
2022/08/09 17:14:15;;;;;;;3.47;1.70;;;25.90;78.20;;;;;;7314260;32;20221;-65
2022/08/09 17:18:29;;;;;;;4.93;1.65;;;25.90;77.90;;;;;;7314188;32;20100;-68
2022/08/09 17:22:31;;;;;;;4.45;1.90;;;25.90;78.00;;;;;;7317557;32;20141;-66
2022/08/09 17:26:33;;;;;;;2.80;1.40;;;25.80;77.60;;;;;;7312069;32;20198;-68
2022/08/09 17:30:39;;;;;;;3.05;1.70;;;25.70;79.40;;;;;;7313409;32;20097;-67
2022/08/09 17:34:48;;;;;;;3.10;1.60;;;25.60;80.00;;;;;;7308497;32;20095;-68
2022/08/09 17:39:10;;;;;;;8.07;4.03;;;25.50;80.00;;;;;;7312456;32;20213;-68
2022/08/09 17:43:12;;;;;;;7.32;4.72;;;25.50;79.50;;;;;;7302153;32;20103;-66
2022/08/09 17:47:33;;;;;;;7.07;1.85;;;25.50;80.30;;;;;;7305902;32;20627;-63
2022/08/09 17:51:55;;;;;;;3.03;1.60;;;25.40;80.00;;;;;;7309137;32;20127;-66
2022/08/09 17:55:57;;;;;;;4.75;1.90;;;25.20;81.00;;;;;;7310731;32;20153;-66
2022/08/09 18:00:09;;;;;;;4.18;1.67;;;25.10;82.30;;;;;;7307186;32;20122;-68
2022/08/09 18:04:11;;;;;;;4.05;1.62;;;25.10;82.00;;;;;;7310297;32;20096;-67
2022/08/09 18:08:13;;;;;;;4.68;1.77;;;24.90;82.60;;;;;;7304487;32;20123;-62
2022/08/09 18:12:17;;;;;;;5.43;1.80;;;24.90;82.80;;;;;;7303855;32;20116;-63
2022/08/09 18:16:20;;;;;;;4.68;1.58;;;24.80;83.00;;;;;;7318138;32;20295;-65
2022/08/09 18:20:31;;;;;;;3.12;1.52;;;24.60;83.00;;;;;;7308432;32;20217;-64
2022/08/09 18:24:53;;;;;;;3.85;1.10;;;24.40;84.80;;;;;;7310691;32;20126;-64
2022/08/09 18:28:54;;;;;;;3.92;1.33;;;24.30;84.00;;;;;;7312272;32;20218;-63
2022/08/09 18:33:16;;;;;;;2.72;1.33;;;24.20;84.60;;;;;;7316032;32;20182;-63
2022/08/09 18:37:23;;;;;;;2.08;1.40;;;24.20;84.10;;;;;;7314576;32;20118;-65
2022/08/09 18:41:45;;;;;;;4.05;1.40;;;24.10;85.40;;;;;;7318390;32;20103;-69
2022/08/09 18:45:54;;;;;;;6.75;1.55;;;24.00;85.80;;;;;;7318739;32;20155;-67
2022/08/09 18:50:16;;;;;;;11.98;8.55;;;23.90;86.00;;;;;;7305624;32;20127;-66
2022/08/09 18:54:17;;;;;;;5.70;1.50;;;23.70;87.00;;;;;;7315717;32;20161;-69
2022/08/09 18:58:30;;;;;;;2.78;1.30;;;23.50;88.20;;;;;;7314490;32;20308;-69
2022/08/09 19:02:34;;;;;;;7.22;1.40;;;23.40;88.60;;;;;;7307942;32;20267;-68
2022/08/09 19:06:36;;;;;;;1.80;1.17;;;23.20;89.20;;;;;;7298033;32;20402;-68
2022/08/09 19:10:39;;;;;;;3.08;1.75;;;23.00;90.40;;;;;;7318577;32;20218;-66
2022/08/09 19:14:41;;;;;;;3.95;1.33;;;23.00;90.10;;;;;;7317488;32;20111;-66
2022/08/09 19:18:44;;;;;;;3.83;1.55;;;22.80;90.40;;;;;;7311973;32;20190;-67
2022/08/09 19:22:46;;;;;;;3.60;1.40;;;22.80;90.80;;;;;;7319484;32;20205;-67
2022/08/09 19:26:56;;;;;;;2.85;1.30;;;22.70;91.00;;;;;;7320472;32;20145;-66
2022/08/09 19:30:57;;;;;;;3.28;1.40;;;22.60;91.40;;;;;;7312531;32;20121;-67
2022/08/09 19:35:00;;;;;;;3.10;1.50;;;22.50;91.40;;;;;;7317747;32;20195;-63
2022/08/09 19:39:19;;;;;;;2.50;1.37;;;22.40;92.30;;;;;;7319663;32;20122;-66
2022/08/09 19:43:41;;;;;;;4.20;1.42;;;22.20;92.20;;;;;;7318010;32;20249;-65
2022/08/09 19:48:03;;;;;;;3.85;1.70;;;22.10;92.90;;;;;;7313153;32;20108;-64
2022/08/09 19:52:06;;;;;;;5.82;3.97;;;22.00;93.50;;;;;;7313663;32;20104;-66
2022/08/09 19:56:08;;;;;;;11.85;9.45;;;21.90;94.30;;;;;;7321134;32;20877;-65
2022/08/09 20:00:16;;;;;;;5.60;4.15;;;21.70;95.00;;;;;;7317703;32;20191;-65
2022/08/09 20:04:18;;;;;;;4.87;2.25;;;21.60;94.80;;;;;;7313221;32;20146;-65
2022/08/09 20:08:38;;;;;;;5.87;2.08;;;21.60;95.00;;;;;;7313491;32;20145;-66
2022/08/09 20:12:40;;;;;;;3.97;1.70;;;21.60;95.10;;;;;;7320008;32;20232;-66
2022/08/09 20:16:46;;;;;;;3.78;1.60;;;21.40;95.80;;;;;;7311242;32;20165;-66
2022/08/09 20:20:56;;;;;;;3.37;1.48;;;21.30;96.20;;;;;;7313444;32;20164;-63
2022/08/09 20:24:57;;;;;;;4.15;1.65;;;21.20;97.10;;;;;;7312925;32;20726;-64
2022/08/09 20:29:01;;;;;;;4.18;1.60;;;21.10;97.20;;;;;;7321199;32;20138;-65
2022/08/09 20:33:19;;;;;;;5.68;1.40;;;21.10;98.20;;;;;;7313298;32;20091;-65
2022/08/09 20:37:21;;;;;;;9.60;6.95;;;21.00;98.90;;;;;;7311804;32;20104;-64
2022/08/09 20:41:23;;;;;;;5.40;2.30;;;20.90;99.80;;;;;;7311006;32;20104;-66
2022/08/09 20:45:39;;;;;;;3.28;2.10;;;20.70;99.90;;;;;;7315053;32;20095;-65
2022/08/09 20:50:01;;;;;;;7.32;2.00;;;20.60;99.90;;;;;;7315526;32;21816;-65
2022/08/09 20:54:03;;;;;;;3.67;1.92;;;20.30;99.90;;;;;;7313791;32;20242;-66
2022/08/09 20:58:05;;;;;;;5.25;1.70;;;20.10;99.90;;;;;;7312962;32;20186;-66
2022/08/09 21:02:21;;;;;;;2.42;1.40;;;19.90;99.90;;;;;;7301628;32;20122;-65
2022/08/09 21:06:23;;;;;;;4.05;1.55;;;19.70;99.90;;;;;;7305329;32;20178;-65
2022/08/09 21:10:29;;;;;;;4.45;1.50;;;19.80;99.90;;;;;;7314721;32;20122;-64
2022/08/09 21:14:38;;;;;;;4.00;1.42;;;19.70;99.90;;;;;;7309649;32;20290;-63
2022/08/09 21:18:42;;;;;;;2.27;1.43;;;19.70;99.90;;;;;;7317886;32;20230;-65
2022/08/09 21:23:05;;;;;;;3.85;1.60;;;19.60;99.90;;;;;;7313126;32;20472;-64
2022/08/09 21:27:14;;;;;;;4.20;1.42;;;19.50;99.90;;;;;;7313508;32;20812;-64
2022/08/09 21:31:35;;;;;;;4.87;1.50;;;19.40;99.90;;;;;;7315111;32;20489;-65
2022/08/09 21:35:50;;;;;;;2.92;1.33;;;19.40;99.90;;;;;;7316574;32;20099;-64
2022/08/09 21:39:53;;;;;;;4.53;1.15;;;19.40;99.90;;;;;;7318478;32;20542;-64
2022/08/09 21:43:55;;;;;;;4.10;1.25;;;19.50;99.90;;;;;;7317207;32;20233;-64
2022/08/09 21:47:59;;;;;;;3.58;1.52;;;19.50;99.90;;;;;;7320249;32;20147;-64